createdAt,value
2023-04-01T00:02:22.057Z,6.38
2023-04-01T00:04:49.676Z,5.45
2023-04-01T00:07:18.731Z,4.88
2023-04-01T00:09:46.580Z,5.65
2023-04-01T00:12:14.174Z,4.90
2023-04-01T00:14:41.759Z,5.40
2023-04-01T00:17:09.367Z,4.65
2023-04-01T00:19:38.458Z,5.60
2023-04-01T00:22:06.313Z,4.75
2023-04-01T00:24:35.276Z,4.90
2023-04-01T00:27:02.868Z,5.05
2023-04-01T00:29:31.627Z,4.30
2023-04-01T00:31:59.604Z,5.30
2023-04-01T00:34:27.458Z,5.22
2023-04-01T00:36:55.241Z,5.93
2023-04-01T00:39:23.265Z,5.57
2023-04-01T00:41:52.232Z,6.50
2023-04-01T00:44:23.451Z,5.60
2023-04-01T00:46:53.443Z,6.15
2023-04-01T00:49:24.413Z,5.30
2023-04-01T00:51:55.563Z,4.95
2023-04-01T00:54:25.976Z,5.80
2023-04-01T00:56:59.065Z,5.80
2023-04-01T00:59:29.469Z,5.60
2023-04-01T01:01:57.217Z,6.88
2023-04-01T01:04:26.520Z,6.25
2023-04-01T01:07:04.678Z,6.38
2023-04-01T01:09:41.673Z,5.70
2023-04-01T01:12:15.372Z,4.90
2023-04-01T01:15:01.420Z,6.18
2023-04-01T01:17:38.755Z,5.65
2023-04-01T01:20:26.490Z,6.65
2023-04-01T01:23:08.683Z,6.40
2023-04-01T01:25:47.002Z,6.20
2023-04-01T01:28:32.750Z,5.93
2023-04-01T01:31:09.748Z,6.22
2023-04-01T01:33:52.840Z,6.20
2023-04-01T01:36:23.335Z,7.18
2023-04-01T01:38:53.589Z,6.03
2023-04-01T01:41:23.104Z,6.28
2023-04-01T01:43:55.336Z,6.05
2023-04-01T01:46:25.325Z,6.10
2023-04-01T01:48:54.212Z,6.57
2023-04-01T01:51:25.532Z,6.15
2023-04-01T01:53:53.101Z,6.30
2023-04-01T01:56:25.444Z,5.47
2023-04-01T01:58:56.707Z,5.97
2023-04-01T02:01:26.891Z,6.53
2023-04-01T02:03:58.159Z,6.47
2023-04-01T02:06:30.973Z,6.00
2023-04-01T02:09:03.310Z,6.60
2023-04-01T02:11:35.361Z,7.25
2023-04-01T02:14:06.630Z,6.13
2023-04-01T02:16:37.791Z,7.00
2023-04-01T02:19:08.328Z,5.68
2023-04-01T02:21:39.844Z,6.05
2023-04-01T02:24:11.796Z,6.18
2023-04-01T02:26:40.881Z,6.72
2023-04-01T02:29:11.397Z,7.03
2023-04-01T02:31:39.686Z,6.85
2023-04-01T02:34:07.505Z,7.03
2023-04-01T02:36:38.668Z,6.85
2023-04-01T02:39:07.509Z,6.55
2023-04-01T02:41:41.482Z,6.53
2023-04-01T02:44:09.490Z,6.65
2023-04-01T02:46:37.161Z,6.50
2023-04-01T02:49:06.039Z,6.38
2023-04-01T02:51:33.702Z,5.75
2023-04-01T02:54:02.693Z,5.88
2023-04-01T02:56:30.524Z,5.88
2023-04-01T02:58:58.641Z,6.13
2023-04-01T03:01:26.288Z,7.28
2023-04-01T03:03:53.924Z,6.18
2023-04-01T03:06:21.585Z,5.88
2023-04-01T03:08:49.256Z,6.28
2023-04-01T03:11:18.379Z,5.88
2023-04-01T03:13:46.086Z,5.90
2023-04-01T03:16:13.709Z,6.25
2023-04-01T03:18:41.690Z,6.97
2023-04-01T03:21:16.708Z,6.22
2023-04-01T03:23:44.586Z,5.95
2023-04-01T03:26:12.484Z,7.03
2023-04-01T03:28:41.464Z,6.35
2023-04-01T03:31:09.552Z,6.22
2023-04-01T03:33:43.669Z,6.20
2023-04-01T03:36:13.650Z,5.53
2023-04-01T03:38:42.411Z,5.55
2023-04-01T03:41:14.269Z,5.18
2023-04-01T03:43:43.837Z,5.63
2023-04-01T03:46:11.970Z,4.80
2023-04-01T03:48:39.681Z,5.22
2023-04-01T03:51:09.043Z,4.85
2023-04-01T03:53:37.067Z,5.50
2023-04-01T03:56:07.445Z,4.80
2023-04-01T03:58:37.065Z,5.15
2023-04-01T04:01:15.589Z,5.25
2023-04-01T04:03:45.172Z,5.72
2023-04-01T04:06:14.056Z,5.32
2023-04-01T04:08:41.899Z,5.93
2023-04-01T04:11:10.073Z,5.57
2023-04-01T04:13:40.694Z,6.13
2023-04-01T04:16:10.767Z,6.07
2023-04-01T04:18:42.184Z,5.88
2023-04-01T04:21:14.185Z,6.60
2023-04-01T04:23:42.674Z,6.50
2023-04-01T04:26:12.624Z,6.70
2023-04-01T04:28:40.619Z,6.38
2023-04-01T04:31:09.756Z,6.40
2023-04-01T04:33:38.243Z,7.07
2023-04-01T04:36:06.569Z,7.18
2023-04-01T04:38:34.207Z,6.13
2023-04-01T04:41:01.930Z,6.40
2023-04-01T04:43:29.982Z,6.45
2023-04-01T04:45:58.204Z,6.40
2023-04-01T04:48:27.122Z,6.32
2023-04-01T04:50:54.764Z,6.93
2023-04-01T04:53:26.232Z,7.22
2023-04-01T04:55:54.297Z,8.40
2023-04-01T04:58:30.888Z,7.85
2023-04-01T05:00:58.766Z,8.70
2023-04-01T05:03:32.112Z,7.10
2023-04-01T05:05:59.789Z,7.68
2023-04-01T05:08:27.373Z,7.57
2023-04-01T05:10:55.952Z,8.30
2023-04-01T05:13:23.653Z,7.55
2023-04-01T05:15:51.340Z,6.90
2023-04-01T05:18:19.107Z,7.10
2023-04-01T05:20:53.788Z,6.63
2023-04-01T05:23:22.550Z,7.35
2023-04-01T05:25:50.712Z,7.22
2023-04-01T05:28:18.621Z,6.88
2023-04-01T05:30:48.353Z,6.68
2023-04-01T05:33:23.293Z,7.28
2023-04-01T05:35:52.659Z,7.00
2023-04-01T05:38:20.404Z,7.00
2023-04-01T05:40:48.011Z,9.75
2023-04-01T05:43:16.219Z,2.90
2023-04-01T05:45:47.018Z,2.65
2023-04-01T05:48:14.603Z,1.40
2023-04-01T05:50:43.210Z,1.13
2023-04-01T05:53:13.823Z,1.45
2023-04-01T05:55:44.017Z,2.05
2023-04-01T05:58:11.795Z,1.20
2023-04-01T06:00:41.350Z,1.83
2023-04-01T06:03:09.318Z,1.10
2023-04-01T06:05:41.732Z,1.48
2023-04-01T06:08:17.195Z,1.60
2023-04-01T06:11:01.591Z,1.40
2023-04-01T06:13:43.978Z,1.42
2023-04-01T06:16:22.745Z,3.13
2023-04-01T06:19:19.475Z,1.90
2023-04-01T06:22:10.764Z,1.65
2023-04-01T06:25:13.831Z,1.60
2023-04-01T06:27:55.824Z,1.77
2023-04-01T06:30:39.013Z,1.67
2023-04-01T06:33:27.103Z,1.60
2023-04-01T06:36:23.505Z,1.48
2023-04-01T06:39:04.742Z,1.55
2023-04-01T06:41:55.933Z,1.40
2023-04-01T06:44:37.279Z,2.40
2023-04-01T06:47:57.990Z,1.58
2023-04-01T06:50:54.026Z,1.30
2023-04-01T06:53:46.774Z,1.35
2023-04-01T06:56:35.048Z,1.25
2023-04-01T06:59:14.586Z,1.10
2023-04-01T07:01:44.657Z,0.82
2023-04-01T07:04:16.997Z,1.55
2023-04-01T07:06:49.031Z,1.10
2023-04-01T07:09:22.152Z,1.25
2023-04-01T07:12:17.861Z,1.30
2023-04-01T07:15:14.241Z,1.02
2023-04-01T07:17:45.145Z,1.20
2023-04-01T07:20:21.846Z,0.95
2023-04-01T07:22:51.743Z,1.60
2023-04-01T07:25:36.106Z,1.10
2023-04-01T07:28:31.687Z,1.15
2023-04-01T07:31:19.075Z,2.10
2023-04-01T07:33:57.115Z,1.23
2023-04-01T07:36:30.932Z,0.77
2023-04-01T07:39:07.014Z,2.80
2023-04-01T07:41:59.731Z,1.50
2023-04-01T07:44:33.337Z,1.23
2023-04-01T07:47:19.820Z,1.35
2023-04-01T07:50:02.534Z,1.23
2023-04-01T07:52:40.249Z,1.05
2023-04-01T07:55:22.769Z,1.60
2023-04-01T07:57:55.840Z,1.13
2023-04-01T08:00:29.304Z,1.10
2023-04-01T08:03:20.201Z,2.20
2023-04-01T08:05:56.877Z,0.93
2023-04-01T08:08:37.632Z,1.00
2023-04-01T08:11:49.773Z,1.25
2023-04-01T08:14:45.584Z,1.20
2023-04-01T08:17:56.197Z,1.40
2023-04-01T08:20:31.565Z,2.25
2023-04-01T08:23:05.584Z,1.42
2023-04-01T08:25:40.697Z,1.05
2023-04-01T08:28:15.124Z,1.35
2023-04-01T08:30:47.927Z,1.30
2023-04-01T08:33:21.438Z,1.20
2023-04-01T08:35:59.760Z,1.33
2023-04-01T08:38:32.947Z,1.67
2023-04-01T08:41:03.530Z,1.42
2023-04-01T08:44:14.806Z,2.35
2023-04-01T08:47:14.284Z,1.48
2023-04-01T08:50:11.665Z,1.20
2023-04-01T08:53:13.726Z,1.17
2023-04-01T08:55:54.330Z,0.80
2023-04-01T08:58:52.592Z,0.70
2023-04-01T09:01:41.843Z,0.90
2023-04-01T09:04:34.614Z,0.80
2023-04-01T09:07:14.949Z,1.17
2023-04-01T09:10:20.382Z,1.55
2023-04-01T09:13:14.999Z,1.20
2023-04-01T09:16:07.246Z,1.15
2023-04-01T09:18:59.758Z,1.40
2023-04-01T09:21:39.537Z,1.17
2023-04-01T09:24:34.478Z,1.60
2023-04-01T09:27:07.492Z,1.20
2023-04-01T09:30:07.783Z,4.38
2023-04-01T09:32:55.421Z,1.13
2023-04-01T09:35:40.958Z,1.73
2023-04-01T09:38:22.794Z,1.15
2023-04-01T09:40:57.582Z,1.20
2023-04-01T09:43:54.815Z,1.40
2023-04-01T09:46:32.191Z,1.35
2023-04-01T09:49:41.222Z,1.20
2023-04-01T09:52:27.726Z,0.90
2023-04-01T09:55:20.890Z,1.40
2023-04-01T09:58:43.339Z,1.17
2023-04-01T10:02:14.263Z,1.00
2023-04-01T10:05:17.390Z,0.95
2023-04-01T10:08:33.919Z,1.08
2023-04-01T10:11:16.881Z,0.80
2023-04-01T10:14:09.545Z,0.95
2023-04-01T10:17:23.313Z,0.90
2023-04-01T10:20:21.541Z,1.30
2023-04-01T10:23:04.371Z,1.20
2023-04-01T10:26:04.889Z,0.95
2023-04-01T10:28:43.587Z,0.70
2023-04-01T10:31:41.480Z,0.90
2023-04-01T10:34:38.000Z,0.65
2023-04-01T10:37:14.992Z,1.10
2023-04-01T10:40:30.151Z,0.63
2023-04-01T10:44:11.398Z,0.50
2023-04-01T10:47:15.476Z,0.77
2023-04-01T10:49:54.709Z,1.00
2023-04-01T10:53:06.820Z,0.60
2023-04-01T10:56:03.454Z,0.60
2023-04-01T10:59:29.182Z,0.70
2023-04-01T11:02:59.353Z,0.95
2023-04-01T11:06:33.351Z,0.80
2023-04-01T11:09:45.941Z,0.80
2023-04-01T11:12:41.817Z,0.90
2023-04-01T11:15:41.088Z,1.00
2023-04-01T11:18:33.270Z,0.90
2023-04-01T11:21:29.734Z,0.90
2023-04-01T11:24:23.560Z,1.00
2023-04-01T11:27:19.850Z,1.02
2023-04-01T11:30:09.548Z,1.20
2023-04-01T11:32:48.618Z,6.68
2023-04-01T11:35:41.016Z,5.65
2023-04-01T11:38:25.524Z,8.82
2023-04-01T11:41:00.144Z,2.38
2023-04-01T11:43:56.408Z,2.08
2023-04-01T11:46:54.845Z,2.00
2023-04-01T11:49:45.900Z,1.70
2023-04-01T11:53:01.540Z,1.90
2023-04-01T11:55:43.913Z,2.65
2023-04-01T11:58:28.959Z,2.40
2023-04-01T12:01:22.244Z,2.38
2023-04-01T12:04:25.661Z,3.10
2023-04-01T12:07:03.382Z,3.65
2023-04-01T12:09:38.989Z,2.92
2023-04-01T12:12:18.245Z,3.22
2023-04-01T12:14:54.299Z,3.70
2023-04-01T12:17:33.214Z,3.55
2023-04-01T12:20:22.436Z,4.47
2023-04-01T12:23:03.336Z,3.97
2023-04-01T12:26:00.560Z,3.80
2023-04-01T12:28:40.143Z,3.80
2023-04-01T12:31:20.602Z,4.00
2023-04-01T12:34:00.640Z,3.40
2023-04-01T12:36:49.890Z,4.28
2023-04-01T12:39:40.358Z,4.30
2023-04-01T12:42:17.958Z,3.70
2023-04-01T12:45:02.544Z,3.53
2023-04-01T12:47:55.801Z,3.47
2023-04-01T12:50:39.410Z,3.45
2023-04-01T12:53:26.604Z,3.28
2023-04-01T12:55:54.506Z,3.25
2023-04-01T12:58:47.771Z,3.20
2023-04-01T13:01:27.966Z,3.80
2023-04-01T13:04:21.682Z,3.70
2023-04-01T13:07:01.529Z,3.97
2023-04-01T13:09:42.096Z,3.95
2023-04-01T13:12:31.445Z,3.60
2023-04-01T13:15:22.569Z,3.42
2023-04-01T13:17:55.541Z,3.70
2023-04-01T13:20:38.978Z,3.70
2023-04-01T13:23:17.454Z,4.05
2023-04-01T13:26:02.252Z,3.40
2023-04-01T13:28:42.560Z,2.80
2023-04-01T13:31:19.757Z,3.42
2023-04-01T13:33:56.869Z,2.92
2023-04-01T13:36:35.454Z,2.60
2023-04-01T13:39:24.369Z,2.60
2023-04-01T13:42:14.886Z,2.40
2023-04-01T13:44:48.622Z,2.47
2023-04-01T13:47:29.423Z,2.22
2023-04-01T13:50:45.823Z,2.25
2023-04-01T13:53:29.096Z,2.70
2023-04-01T13:56:09.564Z,2.70
2023-04-01T13:58:51.662Z,2.88
2023-04-01T14:01:28.662Z,3.28
2023-04-01T14:04:26.720Z,3.58
2023-04-01T14:07:02.804Z,3.72
2023-04-01T14:09:46.759Z,3.30
2023-04-01T14:12:27.986Z,3.50
2023-04-01T14:15:12.382Z,4.15
2023-04-01T14:17:52.235Z,3.55
2023-04-01T14:20:38.765Z,4.10
2023-04-01T14:23:33.356Z,3.95
2023-04-01T14:26:33.238Z,3.13
2023-04-01T14:29:14.354Z,2.90
2023-04-01T14:32:03.934Z,3.35
2023-04-01T14:34:48.055Z,4.13
2023-04-01T14:37:28.601Z,2.88
2023-04-01T14:40:13.844Z,3.80
2023-04-01T14:43:07.690Z,3.10
2023-04-01T14:45:51.573Z,3.90
2023-04-01T14:48:29.057Z,3.75
2023-04-01T14:50:59.658Z,3.35
2023-04-01T14:53:31.159Z,3.25
2023-04-01T14:56:00.913Z,3.30
2023-04-01T14:58:43.390Z,3.03
2023-04-01T15:01:27.973Z,3.58
2023-04-01T15:04:05.858Z,3.42
2023-04-01T15:06:58.145Z,2.90
2023-04-01T15:09:39.883Z,3.05
2023-04-01T15:12:19.263Z,4.90
2023-04-01T15:14:59.908Z,3.97
2023-04-01T15:17:44.926Z,3.22
2023-04-01T15:20:35.629Z,4.25
2023-04-01T15:23:15.875Z,4.50
2023-04-01T15:26:09.204Z,4.55
2023-04-01T15:28:41.929Z,4.60
2023-04-01T15:31:16.967Z,5.93
2023-04-01T15:33:58.441Z,4.60
2023-04-01T15:36:36.917Z,5.18
2023-04-01T15:39:16.209Z,5.30
2023-04-01T15:41:56.473Z,3.80
2023-04-01T15:44:45.397Z,4.38
2023-04-01T15:47:33.994Z,4.18
2023-04-01T15:50:22.566Z,4.72
2023-04-01T15:53:05.371Z,4.13
2023-04-01T15:55:41.754Z,5.55
2023-04-01T15:58:32.615Z,6.70
2023-04-01T16:01:09.416Z,6.35
2023-04-01T16:03:43.205Z,6.68
2023-04-01T16:06:23.642Z,7.38
2023-04-01T16:09:13.752Z,7.13
2023-04-01T16:11:49.577Z,7.15
2023-04-01T16:14:28.923Z,6.72
2023-04-01T16:17:08.831Z,5.80
2023-04-01T16:19:46.749Z,6.07
2023-04-01T16:22:18.592Z,6.07
2023-04-01T16:24:53.647Z,8.23
2023-04-01T16:27:28.975Z,7.43
2023-04-01T16:30:02.373Z,6.45
2023-04-01T16:32:38.972Z,6.53
2023-04-01T16:35:23.759Z,5.70
2023-04-01T16:37:55.269Z,5.38
2023-04-01T16:40:38.389Z,5.68
2023-04-01T16:43:16.214Z,6.57
2023-04-01T16:45:49.301Z,6.07
2023-04-01T16:48:21.121Z,7.13
2023-04-01T16:50:56.211Z,7.25
2023-04-01T16:53:32.820Z,6.78
2023-04-01T16:56:12.722Z,6.55
2023-04-01T16:58:44.377Z,6.63
2023-04-01T17:01:16.727Z,7.07
2023-04-01T17:03:46.821Z,7.70
2023-04-01T17:06:25.617Z,8.15
2023-04-01T17:09:11.872Z,9.57
2023-04-01T17:11:47.688Z,8.38
2023-04-01T17:14:24.605Z,8.85
2023-04-01T17:17:03.525Z,8.82
2023-04-01T17:19:55.949Z,8.18
2023-04-01T17:22:29.976Z,8.10
2023-04-01T17:25:12.693Z,9.60
2023-04-01T17:27:52.795Z,7.50
2023-04-01T17:30:29.905Z,7.18
2023-04-01T17:33:27.759Z,7.60
2023-04-01T17:36:00.407Z,6.03
2023-04-01T17:38:55.602Z,6.00
2023-04-01T17:41:33.873Z,6.05
2023-04-01T17:44:15.756Z,6.15
2023-04-01T17:47:12.625Z,5.28
2023-04-01T17:49:47.396Z,5.20
2023-04-01T17:52:22.161Z,5.18
2023-04-01T17:54:56.467Z,5.93
2023-04-01T17:57:35.006Z,6.22
2023-04-01T18:00:19.580Z,5.70
2023-04-01T18:02:55.654Z,5.45
2023-04-01T18:05:32.674Z,6.07
2023-04-01T18:08:24.690Z,5.63
2023-04-01T18:11:06.730Z,5.43
2023-04-01T18:13:56.759Z,4.25
2023-04-01T18:16:36.299Z,4.43
2023-04-01T18:19:11.573Z,3.85
2023-04-01T18:21:47.524Z,4.80
2023-04-01T18:24:26.662Z,5.38
2023-04-01T18:27:05.000Z,5.05
2023-04-01T18:29:43.424Z,4.03
2023-04-01T18:32:28.317Z,3.47
2023-04-01T18:35:02.409Z,3.80
2023-04-01T18:37:34.666Z,3.22
2023-04-01T18:40:14.538Z,4.10
2023-04-01T18:42:53.946Z,4.38
2023-04-01T18:45:26.136Z,4.25
2023-04-01T18:48:08.760Z,4.47
2023-04-01T18:50:43.005Z,3.53
2023-04-01T18:53:24.330Z,4.25
2023-04-01T18:55:55.714Z,3.85
2023-04-01T18:58:30.085Z,3.55
2023-04-01T19:01:13.083Z,3.83
2023-04-01T19:03:50.314Z,4.05
2023-04-01T19:06:23.808Z,3.92
2023-04-01T19:08:53.996Z,3.95
2023-04-01T19:11:32.268Z,3.55
2023-04-01T19:14:12.013Z,3.90
2023-04-01T19:16:51.340Z,3.92
2023-04-01T19:19:34.924Z,3.83
2023-04-01T19:22:13.214Z,3.70
2023-04-01T19:24:56.980Z,3.80
2023-04-01T19:27:36.366Z,3.60
2023-04-01T19:30:20.034Z,4.20
2023-04-01T19:32:59.075Z,4.43
2023-04-01T19:35:38.180Z,3.88
2023-04-01T19:38:13.237Z,4.13
2023-04-01T19:40:50.438Z,3.90
2023-04-01T19:43:31.300Z,4.07
2023-04-01T19:46:09.437Z,4.80
2023-04-01T19:48:55.544Z,4.45
2023-04-01T19:51:30.173Z,4.03
2023-04-01T19:54:04.208Z,4.05
2023-04-01T19:56:36.801Z,3.60
2023-04-01T19:59:12.953Z,3.53
2023-04-01T20:01:46.859Z,3.78
2023-04-01T20:04:19.158Z,4.05
2023-04-01T20:06:59.343Z,3.38
2023-04-01T20:09:49.294Z,3.50
2023-04-01T20:12:29.482Z,2.60
2023-04-01T20:15:00.489Z,2.65
2023-04-01T20:17:33.420Z,3.42
2023-04-01T20:20:15.543Z,2.80
2023-04-01T20:23:03.216Z,2.53
2023-04-01T20:25:39.891Z,3.00
2023-04-01T20:28:15.246Z,3.10
2023-04-01T20:31:06.555Z,3.20
2023-04-01T20:33:54.861Z,2.72
2023-04-01T20:36:32.933Z,3.53
2023-04-01T20:39:25.965Z,3.22
2023-04-01T20:42:11.741Z,2.42
2023-04-01T20:44:47.005Z,3.10
2023-04-01T20:47:24.837Z,3.03
2023-04-01T20:50:00.410Z,2.95
2023-04-01T20:52:34.788Z,3.60
2023-04-01T20:55:52.695Z,3.33
2023-04-01T20:58:26.030Z,3.28
2023-04-01T21:01:00.914Z,2.55
2023-04-01T21:03:40.187Z,2.58
2023-04-01T21:06:46.742Z,2.85
2023-04-01T21:09:25.256Z,3.25
2023-04-01T21:12:03.315Z,2.90
2023-04-01T21:14:59.970Z,2.33
2023-04-01T21:17:45.411Z,2.70
2023-04-01T21:20:30.574Z,2.58
2023-04-01T21:23:22.212Z,2.40
2023-04-01T21:25:58.202Z,2.20
2023-04-01T21:28:47.872Z,2.83
2023-04-01T21:31:24.759Z,2.60
2023-04-01T21:34:16.225Z,1.90
2023-04-01T21:37:08.768Z,1.95
2023-04-01T21:39:49.564Z,2.63
2023-04-01T21:42:25.745Z,2.28
2023-04-01T21:45:07.209Z,1.95
2023-04-01T21:48:28.671Z,2.45
2023-04-01T21:51:21.705Z,2.03
2023-04-01T21:54:19.091Z,3.00
2023-04-01T21:57:23.817Z,2.53
2023-04-01T22:00:12.048Z,2.60
2023-04-01T22:03:26.893Z,2.88
2023-04-01T22:06:02.609Z,2.83
2023-04-01T22:08:44.083Z,2.55
2023-04-01T22:11:22.769Z,2.35
2023-04-01T22:13:52.734Z,2.90
2023-04-01T22:16:29.145Z,2.53
2023-04-01T22:19:05.278Z,2.13
2023-04-01T22:21:45.772Z,2.10
2023-04-01T22:24:24.517Z,2.45
2023-04-01T22:27:00.892Z,2.13
2023-04-01T22:29:38.680Z,2.13
2023-04-01T22:32:18.515Z,2.30
2023-04-01T22:34:53.207Z,2.40
2023-04-01T22:37:27.683Z,2.72
2023-04-01T22:40:14.557Z,2.50
2023-04-01T22:42:45.647Z,1.98
2023-04-01T22:45:29.184Z,2.30
2023-04-01T22:48:07.786Z,2.55
2023-04-01T22:50:42.292Z,2.03
2023-04-01T22:53:23.341Z,1.73
2023-04-01T22:55:54.133Z,2.10
2023-04-01T22:58:28.144Z,2.13
2023-04-01T23:01:00.454Z,2.13
2023-04-01T23:03:32.223Z,2.22
2023-04-01T23:06:02.097Z,2.28
2023-04-01T23:08:57.425Z,2.10
2023-04-01T23:11:29.044Z,1.73
2023-04-01T23:14:08.905Z,2.13
2023-04-01T23:16:41.096Z,1.77
2023-04-01T23:19:18.410Z,1.65
2023-04-01T23:21:52.942Z,1.90
2023-04-01T23:24:28.260Z,1.50
2023-04-01T23:27:01.095Z,1.88
2023-04-01T23:29:29.342Z,1.75
2023-04-01T23:32:00.993Z,2.20
2023-04-01T23:34:33.273Z,2.42
2023-04-01T23:37:04.736Z,1.92
2023-04-01T23:39:36.679Z,1.92
2023-04-01T23:42:07.618Z,2.10
2023-04-01T23:44:37.405Z,2.47
2023-04-01T23:47:06.577Z,1.80
2023-04-01T23:49:40.559Z,1.60
2023-04-01T23:52:15.428Z,1.50
2023-04-01T23:54:49.033Z,1.80
2023-04-01T23:57:20.499Z,1.55
